createdAt,value
2018-08-04T00:00:54.780Z,24.35
2018-08-04T00:01:54.681Z,24.36
2018-08-04T00:02:54.773Z,24.35
2018-08-04T00:03:54.689Z,24.34
2018-08-04T00:04:54.764Z,24.34
2018-08-04T00:05:54.879Z,24.35
2018-08-04T00:06:54.829Z,24.34
2018-08-04T00:07:54.908Z,24.34
2018-08-04T00:08:54.818Z,24.34
2018-08-04T00:09:54.923Z,24.34
2018-08-04T00:10:54.806Z,24.35
2018-08-04T00:11:54.776Z,24.35
2018-08-04T00:12:55.121Z,24.34
2018-08-04T00:13:54.718Z,24.34
2018-08-04T00:14:54.946Z,24.34
2018-08-04T00:15:54.853Z,24.33
2018-08-04T00:16:54.778Z,24.34
2018-08-04T00:17:54.969Z,24.33
2018-08-04T00:18:54.809Z,24.33
2018-08-04T00:19:54.776Z,24.34
2018-08-04T00:20:54.765Z,24.33
2018-08-04T00:21:54.644Z,24.33
2018-08-04T00:22:55.224Z,24.34
2018-08-04T00:23:54.676Z,24.34
2018-08-04T00:24:54.845Z,24.34
2018-08-04T00:25:55.039Z,24.34
2018-08-04T00:26:54.775Z,24.33
2018-08-04T00:27:54.882Z,24.32
2018-08-04T00:28:54.797Z,24.33
2018-08-04T00:29:55.293Z,24.34
2018-08-04T00:30:54.589Z,24.32
2018-08-04T00:31:55.124Z,24.33
2018-08-04T00:32:54.730Z,24.33
2018-08-04T00:33:54.879Z,24.32
2018-08-04T00:34:54.816Z,24.32
2018-08-04T00:35:54.808Z,24.32
2018-08-04T00:36:54.779Z,24.32
2018-08-04T00:37:54.782Z,24.33
2018-08-04T00:38:54.843Z,24.33
2018-08-04T00:39:54.683Z,24.33
2018-08-04T00:40:54.820Z,24.33
2018-08-04T00:41:54.903Z,24.33
2018-08-04T00:42:54.899Z,24.33
2018-08-04T00:43:54.640Z,24.33
2018-08-04T00:44:54.714Z,24.34
2018-08-04T00:45:54.722Z,24.32
2018-08-04T00:46:54.806Z,24.33
2018-08-04T00:47:54.768Z,24.33
2018-08-04T00:48:54.727Z,24.32
2018-08-04T00:49:55.004Z,24.32
2018-08-04T00:50:54.829Z,24.33
2018-08-04T00:51:54.726Z,24.33
2018-08-04T00:52:54.909Z,24.32
2018-08-04T00:53:54.783Z,24.32
2018-08-04T00:54:54.896Z,24.32
2018-08-04T00:55:54.750Z,24.32
2018-08-04T00:56:54.953Z,24.33
2018-08-04T00:57:54.713Z,24.32
2018-08-04T00:58:54.950Z,24.33
2018-08-04T00:59:54.680Z,24.32
2018-08-04T01:00:54.972Z,24.31
2018-08-04T01:01:54.843Z,24.33
2018-08-04T01:02:54.756Z,24.32
2018-08-04T01:03:55.095Z,24.32
2018-08-04T01:04:54.749Z,24.32
2018-08-04T01:05:54.875Z,24.32
2018-08-04T01:06:54.641Z,24.32
2018-08-04T01:07:54.855Z,24.32
2018-08-04T01:08:54.687Z,24.32
2018-08-04T01:09:54.810Z,24.31
2018-08-04T01:10:54.724Z,24.31
2018-08-04T01:11:54.788Z,24.32
2018-08-04T01:12:54.747Z,24.32
2018-08-04T01:13:54.884Z,24.32
2018-08-04T01:14:54.787Z,24.32
2018-08-04T01:15:54.634Z,24.32
2018-08-04T01:16:54.856Z,24.31
2018-08-04T01:17:54.803Z,24.32
2018-08-04T01:18:54.680Z,24.31
2018-08-04T01:19:54.789Z,24.32
2018-08-04T01:20:54.791Z,24.32
2018-08-04T01:21:54.950Z,24.31
2018-08-04T01:22:54.716Z,24.32
2018-08-04T01:23:54.892Z,24.32
2018-08-04T01:24:54.759Z,24.32
2018-08-04T01:25:54.946Z,24.31
2018-08-04T01:26:55.006Z,24.31
2018-08-04T01:27:54.889Z,24.31
2018-08-04T01:28:54.851Z,24.32
2018-08-04T01:29:54.810Z,24.32
2018-08-04T01:30:54.669Z,24.31
2018-08-04T01:31:54.785Z,24.3
2018-08-04T01:32:54.869Z,24.31
2018-08-04T01:33:54.720Z,24.31
2018-08-04T01:34:54.795Z,24.31
2018-08-04T01:35:54.770Z,24.31
2018-08-04T01:36:54.831Z,24.31
2018-08-04T01:37:54.767Z,24.31
2018-08-04T01:38:54.892Z,24.31
2018-08-04T01:39:54.915Z,24.31
2018-08-04T01:40:54.647Z,24.31
2018-08-04T01:41:54.730Z,24.31
2018-08-04T01:42:55.378Z,24.3
2018-08-04T01:43:54.881Z,24.31
2018-08-04T01:44:54.919Z,24.31
2018-08-04T01:45:54.769Z,24.3
2018-08-04T01:46:54.864Z,24.3
2018-08-04T01:47:54.876Z,24.31
2018-08-04T01:48:54.747Z,24.3
2018-08-04T01:49:54.625Z,24.3
2018-08-04T01:50:54.715Z,24.3
2018-08-04T01:51:54.675Z,24.3
2018-08-04T01:52:54.819Z,24.31
2018-08-04T01:53:54.928Z,24.31
2018-08-04T01:54:54.670Z,24.3
2018-08-04T01:55:55.044Z,24.31
2018-08-04T01:56:54.835Z,24.31
2018-08-04T01:57:54.818Z,24.31
2018-08-04T01:58:54.759Z,24.3
2018-08-04T01:59:54.777Z,24.31
2018-08-04T02:00:54.647Z,24.3
2018-08-04T02:01:54.891Z,24.31
2018-08-04T02:02:54.722Z,24.31
2018-08-04T02:03:54.617Z,24.3
2018-08-04T02:04:54.634Z,24.3
2018-08-04T02:05:54.885Z,24.31
2018-08-04T02:06:55.196Z,24.3
2018-08-04T02:07:54.737Z,24.29
2018-08-04T02:08:54.770Z,24.31
2018-08-04T02:09:54.716Z,24.3
2018-08-04T02:10:54.885Z,24.3
2018-08-04T02:11:54.764Z,24.3
2018-08-04T02:12:54.688Z,24.3
2018-08-04T02:13:54.688Z,24.3
2018-08-04T02:14:54.866Z,24.3
2018-08-04T02:15:55.313Z,24.3
2018-08-04T02:16:55.017Z,24.3
2018-08-04T02:17:54.878Z,24.31
2018-08-04T02:18:54.761Z,24.3
2018-08-04T02:19:54.714Z,24.29
2018-08-04T02:20:54.746Z,24.29
2018-08-04T02:21:54.749Z,24.29
2018-08-04T02:22:54.763Z,24.29
2018-08-04T02:23:54.845Z,24.3
2018-08-04T02:24:54.688Z,24.29
2018-08-04T02:25:54.723Z,24.3
2018-08-04T02:26:54.690Z,24.29
2018-08-04T02:27:54.648Z,24.3
2018-08-04T02:28:54.702Z,24.3
2018-08-04T02:29:54.752Z,24.29
2018-08-04T02:30:54.778Z,24.3
2018-08-04T02:31:54.793Z,24.29
2018-08-04T02:32:54.807Z,24.3
2018-08-04T02:33:54.801Z,24.29
2018-08-04T02:34:54.832Z,24.29
2018-08-04T02:35:54.677Z,24.3
2018-08-04T02:36:54.648Z,24.29
2018-08-04T02:37:54.655Z,24.29
2018-08-04T02:38:54.842Z,24.29
2018-08-04T02:39:54.645Z,24.29
2018-08-04T02:40:54.928Z,24.29
2018-08-04T02:41:54.684Z,24.3
2018-08-04T02:42:54.860Z,24.3
2018-08-04T02:43:54.697Z,24.29
2018-08-04T02:44:54.797Z,24.29
2018-08-04T02:45:54.572Z,24.29
2018-08-04T02:46:54.807Z,24.29
2018-08-04T02:47:54.798Z,24.29
2018-08-04T02:48:54.874Z,24.29
2018-08-04T02:49:54.766Z,24.29
2018-08-04T02:50:54.831Z,24.3
2018-08-04T02:51:54.770Z,24.29
2018-08-04T02:52:54.877Z,24.29
2018-08-04T02:53:54.808Z,24.29
2018-08-04T02:54:54.617Z,24.29
2018-08-04T02:55:54.968Z,24.29
2018-08-04T02:56:54.839Z,24.29
2018-08-04T02:57:55.013Z,24.29
2018-08-04T02:58:54.665Z,24.29
2018-08-04T02:59:54.753Z,24.29
2018-08-04T03:00:54.701Z,24.28
2018-08-04T03:01:54.866Z,24.29
2018-08-04T03:02:54.969Z,24.29
2018-08-04T03:03:54.619Z,24.28
2018-08-04T03:04:54.913Z,24.29
2018-08-04T03:05:54.632Z,24.3
2018-08-04T03:06:54.821Z,24.28
2018-08-04T03:07:54.811Z,24.29
2018-08-04T03:08:54.654Z,24.29
2018-08-04T03:09:54.683Z,24.28
2018-08-04T03:10:54.866Z,24.28
2018-08-04T03:11:54.973Z,24.29
2018-08-04T03:12:54.738Z,24.29
2018-08-04T03:13:54.889Z,24.28
2018-08-04T03:14:54.794Z,24.29
2018-08-04T03:15:54.937Z,24.29
2018-08-04T03:16:54.828Z,24.29
2018-08-04T03:17:54.788Z,24.29
2018-08-04T03:18:54.738Z,24.28
2018-08-04T03:19:54.690Z,24.29
2018-08-04T03:20:54.843Z,24.29
2018-08-04T03:21:54.686Z,24.29
2018-08-04T03:22:54.688Z,24.29
2018-08-04T03:23:54.849Z,24.29
2018-08-04T03:24:54.891Z,24.28
2018-08-04T03:25:54.705Z,24.28
2018-08-04T03:26:54.806Z,24.29
2018-08-04T03:27:55.034Z,24.28
2018-08-04T03:28:54.721Z,24.29
2018-08-04T03:29:54.852Z,24.29
2018-08-04T03:30:54.940Z,24.28
2018-08-04T03:31:54.796Z,24.29
2018-08-04T03:32:54.903Z,24.29
2018-08-04T03:33:54.773Z,24.28
2018-08-04T03:34:54.731Z,24.28
2018-08-04T03:35:54.875Z,24.29
2018-08-04T03:36:54.910Z,24.28
2018-08-04T03:37:54.740Z,24.28
2018-08-04T03:38:54.799Z,24.28
2018-08-04T03:39:54.764Z,24.29
2018-08-04T03:40:54.859Z,24.29
2018-08-04T03:41:54.629Z,24.28
2018-08-04T03:42:54.773Z,24.28
2018-08-04T03:43:54.758Z,24.28
2018-08-04T03:44:54.863Z,24.28
2018-08-04T03:45:54.651Z,24.28
2018-08-04T03:46:54.776Z,24.29
2018-08-04T03:47:54.765Z,24.28
2018-08-04T03:48:54.858Z,24.28
2018-08-04T03:49:54.941Z,24.28
2018-08-04T03:50:54.617Z,24.28
2018-08-04T03:51:54.893Z,24.28
2018-08-04T03:52:54.721Z,24.29
2018-08-04T03:53:54.892Z,24.28
2018-08-04T03:54:54.775Z,24.28
2018-08-04T03:55:54.871Z,24.29
2018-08-04T03:56:54.738Z,24.29
2018-08-04T03:57:54.828Z,24.28
2018-08-04T03:58:54.855Z,24.28
2018-08-04T03:59:54.577Z,24.28
2018-08-04T04:00:54.839Z,24.29
2018-08-04T04:01:54.828Z,24.28
2018-08-04T04:02:54.679Z,24.29
2018-08-04T04:03:54.682Z,24.28
2018-08-04T04:04:54.745Z,24.28
2018-08-04T04:05:54.716Z,24.29
2018-08-04T04:06:54.730Z,24.27
2018-08-04T04:07:54.715Z,24.28
2018-08-04T04:08:54.582Z,24.29
2018-08-04T04:09:54.830Z,24.28
2018-08-04T04:10:54.630Z,24.28
2018-08-04T04:11:54.921Z,24.28
2018-08-04T04:12:55.069Z,24.28
2018-08-04T04:13:54.698Z,24.28
2018-08-04T04:14:54.746Z,24.28
2018-08-04T04:15:54.791Z,24.27
2018-08-04T04:16:54.935Z,24.28
2018-08-04T04:17:54.675Z,24.28
2018-08-04T04:18:54.813Z,24.27
2018-08-04T04:19:54.902Z,24.28
2018-08-04T04:20:54.741Z,24.28
2018-08-04T04:21:54.910Z,24.28
2018-08-04T04:22:54.778Z,24.29
2018-08-04T04:23:54.819Z,24.28
2018-08-04T04:24:55.003Z,24.28
2018-08-04T04:25:54.681Z,24.28
2018-08-04T04:26:54.660Z,24.27
2018-08-04T04:27:54.655Z,24.28
2018-08-04T04:28:54.994Z,24.28
2018-08-04T04:29:54.877Z,24.28
2018-08-04T04:30:54.998Z,24.27
2018-08-04T04:31:54.744Z,24.28
2018-08-04T04:32:54.751Z,24.28
2018-08-04T04:33:54.886Z,24.27
2018-08-04T04:34:54.749Z,24.27
2018-08-04T04:35:54.807Z,24.28
2018-08-04T04:36:54.747Z,24.28
2018-08-04T04:37:54.819Z,24.27
2018-08-04T04:38:54.690Z,24.28
2018-08-04T04:39:54.793Z,24.27
2018-08-04T04:40:55.003Z,24.27
2018-08-04T04:41:54.828Z,24.27
2018-08-04T04:42:54.699Z,24.27
2018-08-04T04:43:54.777Z,24.28
2018-08-04T04:44:54.763Z,24.27
2018-08-04T04:45:54.917Z,24.27
2018-08-04T04:46:54.571Z,24.27
2018-08-04T04:47:54.697Z,24.27
2018-08-04T04:48:54.692Z,24.27
2018-08-04T04:49:54.702Z,24.27
2018-08-04T04:50:54.674Z,24.27
2018-08-04T04:51:54.852Z,24.27
2018-08-04T04:52:54.751Z,24.27
2018-08-04T04:53:54.569Z,24.27
2018-08-04T04:54:54.729Z,24.27
2018-08-04T04:55:54.874Z,24.27
2018-08-04T04:56:54.714Z,24.28
2018-08-04T04:57:54.731Z,24.26
2018-08-04T04:58:54.687Z,24.27
2018-08-04T04:59:54.725Z,24.27
2018-08-04T05:00:54.689Z,24.27
2018-08-04T05:01:54.872Z,24.27
2018-08-04T05:02:54.682Z,24.28
2018-08-04T05:03:54.633Z,24.27
2018-08-04T05:04:54.826Z,24.27
2018-08-04T05:05:54.815Z,24.26
2018-08-04T05:06:54.673Z,24.27
2018-08-04T05:07:54.825Z,24.27
2018-08-04T05:08:54.624Z,24.27
2018-08-04T05:09:54.835Z,24.26
2018-08-04T05:10:54.636Z,24.27
2018-08-04T05:11:54.791Z,24.27
2018-08-04T05:12:55.020Z,24.26
2018-08-04T05:13:54.742Z,24.27
2018-08-04T05:14:54.822Z,24.27
2018-08-04T05:15:54.783Z,24.26
2018-08-04T05:16:54.939Z,24.26
2018-08-04T05:17:54.737Z,24.27
2018-08-04T05:18:54.627Z,24.27
2018-08-04T05:19:54.854Z,24.26
2018-08-04T05:20:54.841Z,24.26
2018-08-04T05:21:54.856Z,24.26
2018-08-04T05:22:54.719Z,24.26
2018-08-04T05:23:54.749Z,24.27
2018-08-04T05:24:55.117Z,24.26
2018-08-04T05:25:54.618Z,24.26
2018-08-04T05:26:54.747Z,24.26
2018-08-04T05:27:54.849Z,24.26
2018-08-04T05:28:54.685Z,24.27
2018-08-04T05:29:54.695Z,24.26
2018-08-04T05:30:54.744Z,24.26
2018-08-04T05:31:54.682Z,24.27
2018-08-04T05:32:54.680Z,24.26
2018-08-04T05:33:54.751Z,24.26
2018-08-04T05:34:54.722Z,24.26
2018-08-04T05:35:54.849Z,24.26
2018-08-04T05:36:54.738Z,24.25
2018-08-04T05:37:54.882Z,24.26
2018-08-04T05:38:54.553Z,24.25
2018-08-04T05:39:54.788Z,24.25
2018-08-04T05:40:54.637Z,24.26
2018-08-04T05:41:54.784Z,24.26
2018-08-04T05:42:54.713Z,24.25
2018-08-04T05:43:54.794Z,24.26
2018-08-04T05:44:54.944Z,24.26
2018-08-04T05:45:54.818Z,24.25
2018-08-04T05:46:54.703Z,24.25
2018-08-04T05:47:54.628Z,24.26
2018-08-04T05:48:54.641Z,24.26
2018-08-04T05:49:54.749Z,24.25
2018-08-04T05:50:54.740Z,24.26
2018-08-04T05:51:54.616Z,24.25
2018-08-04T05:52:54.635Z,24.25
2018-08-04T05:53:54.720Z,24.25
2018-08-04T05:54:54.835Z,24.25
2018-08-04T05:55:54.719Z,24.26
2018-08-04T05:56:54.716Z,24.26
2018-08-04T05:57:54.796Z,24.25
2018-08-04T05:58:54.490Z,24.26
2018-08-04T05:59:54.658Z,24.26
2018-08-04T06:00:54.717Z,24.25
2018-08-04T06:01:54.730Z,24.26
2018-08-04T06:02:54.663Z,24.25
2018-08-04T06:03:54.628Z,24.25
2018-08-04T06:04:54.843Z,24.25
2018-08-04T06:05:54.823Z,24.25
2018-08-04T06:06:54.746Z,24.26
2018-08-04T06:07:54.606Z,24.25
2018-08-04T06:08:54.728Z,24.25
2018-08-04T06:09:54.761Z,24.25
2018-08-04T06:10:54.697Z,24.25
2018-08-04T06:11:54.696Z,24.25
2018-08-04T06:12:54.663Z,24.25
2018-08-04T06:13:54.725Z,24.25
2018-08-04T06:14:54.774Z,24.25
2018-08-04T06:15:54.578Z,24.25
2018-08-04T06:16:54.720Z,24.25
2018-08-04T06:17:54.756Z,24.26
2018-08-04T06:18:54.821Z,24.25
2018-08-04T06:19:54.804Z,24.25
2018-08-04T06:20:54.775Z,24.25
2018-08-04T06:21:54.893Z,24.25
2018-08-04T06:22:54.778Z,24.25
2018-08-04T06:23:54.809Z,24.25
2018-08-04T06:24:54.936Z,24.25
2018-08-04T06:25:54.554Z,24.25
2018-08-04T06:26:54.706Z,24.25
2018-08-04T06:27:54.754Z,24.25
2018-08-04T06:28:54.725Z,24.25
2018-08-04T06:29:54.726Z,24.25
2018-08-04T06:30:54.781Z,24.24
2018-08-04T06:31:54.637Z,24.25
2018-08-04T06:32:54.811Z,24.25
2018-08-04T06:33:54.665Z,24.24
2018-08-04T06:34:54.749Z,24.25
2018-08-04T06:35:54.789Z,24.25
2018-08-04T06:36:54.720Z,24.25
2018-08-04T06:37:54.773Z,24.25
2018-08-04T06:38:54.834Z,24.25
2018-08-04T06:39:54.832Z,24.26
2018-08-04T06:40:54.847Z,24.25
2018-08-04T06:41:54.592Z,24.25
2018-08-04T06:42:54.979Z,24.24
2018-08-04T06:43:54.805Z,24.25
2018-08-04T06:44:54.765Z,24.25
2018-08-04T06:45:54.860Z,24.25
2018-08-04T06:46:54.822Z,24.24
2018-08-04T06:47:54.742Z,24.25
2018-08-04T06:48:55.004Z,24.24
2018-08-04T06:49:54.648Z,24.24
2018-08-04T06:50:54.682Z,24.24
2018-08-04T06:51:54.723Z,24.25
2018-08-04T06:52:54.742Z,24.25
2018-08-04T06:53:54.810Z,24.24
2018-08-04T06:54:54.705Z,24.24
2018-08-04T06:55:54.759Z,24.24
2018-08-04T06:56:54.849Z,24.25
2018-08-04T06:57:54.745Z,24.25
2018-08-04T06:58:54.632Z,24.23
2018-08-04T06:59:54.730Z,24.25
2018-08-04T07:00:55.050Z,24.25
2018-08-04T07:01:54.703Z,24.24
2018-08-04T07:02:54.748Z,24.25
2018-08-04T07:03:54.813Z,24.24
2018-08-04T07:04:54.846Z,24.25
2018-08-04T07:05:54.814Z,24.25
2018-08-04T07:06:54.741Z,24.24
2018-08-04T07:07:54.809Z,24.24
2018-08-04T07:08:54.760Z,24.25
2018-08-04T07:09:54.972Z,24.24
2018-08-04T07:10:54.750Z,24.24
2018-08-04T07:11:54.866Z,24.25
2018-08-04T07:12:54.605Z,24.24
2018-08-04T07:13:54.749Z,24.24
2018-08-04T07:14:54.624Z,24.25
2018-08-04T07:15:54.805Z,24.24
2018-08-04T07:16:54.844Z,24.24
2018-08-04T07:17:54.808Z,24.25
2018-08-04T07:18:54.748Z,24.24
2018-08-04T07:19:54.832Z,24.25
2018-08-04T07:20:54.693Z,24.24
2018-08-04T07:21:54.599Z,24.24
2018-08-04T07:22:54.936Z,24.26
2018-08-04T07:23:54.704Z,24.25
2018-08-04T07:24:54.686Z,24.25
2018-08-04T07:25:54.576Z,24.25
2018-08-04T07:26:54.616Z,24.25
2018-08-04T07:27:54.693Z,24.24
2018-08-04T07:28:54.846Z,24.25
2018-08-04T07:29:54.673Z,24.25
2018-08-04T07:30:54.633Z,24.25
2018-08-04T07:31:54.615Z,24.25
2018-08-04T07:32:54.610Z,24.25
2018-08-04T07:33:54.669Z,24.25
2018-08-04T07:34:54.631Z,24.25
2018-08-04T07:35:54.739Z,24.25
2018-08-04T07:36:54.660Z,24.25
2018-08-04T07:37:54.580Z,24.25
2018-08-04T07:38:54.651Z,24.25
2018-08-04T07:39:54.681Z,24.25
2018-08-04T07:40:54.841Z,24.25
2018-08-04T07:41:54.775Z,24.25
2018-08-04T07:42:54.619Z,24.25
2018-08-04T07:43:54.735Z,24.25
2018-08-04T07:44:54.662Z,24.25
2018-08-04T07:45:54.854Z,24.25
2018-08-04T07:46:55.015Z,24.25
2018-08-04T07:47:54.608Z,24.25
2018-08-04T07:48:54.752Z,24.25
2018-08-04T07:49:54.859Z,24.25
2018-08-04T07:50:54.684Z,24.25
2018-08-04T07:51:54.656Z,24.25
2018-08-04T07:52:54.797Z,24.25
2018-08-04T07:53:54.878Z,24.26
2018-08-04T07:54:54.810Z,24.25
2018-08-04T07:55:54.903Z,24.25
2018-08-04T07:56:54.811Z,24.26
2018-08-04T07:57:54.555Z,24.25
2018-08-04T07:58:54.799Z,24.25
2018-08-04T07:59:54.642Z,24.25
2018-08-04T08:00:54.722Z,24.25
2018-08-04T08:01:54.669Z,24.26
2018-08-04T08:02:54.674Z,24.27
2018-08-04T08:03:54.558Z,24.29
2018-08-04T08:04:54.863Z,24.32
2018-08-04T08:05:54.656Z,24.35
2018-08-04T08:06:54.666Z,24.35
2018-08-04T08:07:54.760Z,24.39
2018-08-04T08:08:54.802Z,24.4
2018-08-04T08:09:54.641Z,24.39
2018-08-04T08:10:54.857Z,24.42
2018-08-04T08:11:55.152Z,24.43
2018-08-04T08:12:54.893Z,24.43
2018-08-04T08:13:54.704Z,24.47
2018-08-04T08:14:54.640Z,24.46
2018-08-04T08:15:54.784Z,24.45
2018-08-04T08:16:54.636Z,24.46
2018-08-04T08:17:54.585Z,24.46
2018-08-04T08:18:54.720Z,24.47
2018-08-04T08:19:54.733Z,24.49
2018-08-04T08:20:54.703Z,24.49
2018-08-04T08:21:54.755Z,24.49
2018-08-04T08:22:54.755Z,24.52
2018-08-04T08:23:54.952Z,24.52
2018-08-04T08:24:54.754Z,24.51
2018-08-04T08:25:54.775Z,24.52
2018-08-04T08:26:55.198Z,24.52
2018-08-04T08:27:54.927Z,24.53
2018-08-04T08:28:54.784Z,24.54
2018-08-04T08:29:54.804Z,24.52
2018-08-04T08:30:54.867Z,24.51
2018-08-04T08:31:54.925Z,24.54
2018-08-04T08:32:54.869Z,24.55
2018-08-04T08:33:54.679Z,24.46
2018-08-04T08:34:54.834Z,24.48
2018-08-04T08:35:54.672Z,24.51
2018-08-04T08:36:54.758Z,24.52
2018-08-04T08:37:54.657Z,24.5
2018-08-04T08:38:54.713Z,24.5
2018-08-04T08:39:54.769Z,24.49
2018-08-04T08:40:54.770Z,24.51
2018-08-04T08:41:54.905Z,24.52
2018-08-04T08:42:54.780Z,24.5
2018-08-04T08:43:54.635Z,24.52
2018-08-04T08:44:54.672Z,24.52
2018-08-04T08:45:54.604Z,24.52
2018-08-04T08:46:54.603Z,24.52
2018-08-04T08:47:54.766Z,24.52
2018-08-04T08:48:54.652Z,24.53
2018-08-04T08:49:54.760Z,24.48
2018-08-04T08:50:54.900Z,24.5
2018-08-04T08:51:54.665Z,24.51
2018-08-04T08:52:54.696Z,24.52
2018-08-04T08:53:54.633Z,24.54
2018-08-04T08:54:54.764Z,24.54
2018-08-04T08:55:54.642Z,24.56
2018-08-04T08:56:54.711Z,24.56
2018-08-04T08:57:54.778Z,24.56
2018-08-04T08:58:54.807Z,24.58
2018-08-04T08:59:54.731Z,24.59
2018-08-04T09:00:54.783Z,24.59
2018-08-04T09:01:54.633Z,24.59
2018-08-04T09:02:54.725Z,24.6
2018-08-04T09:03:54.849Z,24.6
2018-08-04T09:04:54.840Z,24.62
2018-08-04T09:05:54.745Z,24.63
2018-08-04T09:06:54.698Z,24.63
2018-08-04T09:07:54.709Z,24.63
2018-08-04T09:08:54.732Z,24.66
2018-08-04T09:09:54.657Z,24.65
2018-08-04T09:10:54.834Z,24.66
2018-08-04T09:11:54.785Z,24.68
2018-08-04T09:12:54.679Z,24.67
2018-08-04T09:13:54.652Z,24.67
2018-08-04T09:14:54.916Z,24.68
2018-08-04T09:15:54.639Z,24.67
2018-08-04T09:16:54.905Z,24.68
2018-08-04T09:17:54.791Z,24.68
2018-08-04T09:18:54.708Z,24.68
2018-08-04T09:19:54.772Z,24.69
2018-08-04T09:20:54.686Z,24.7
2018-08-04T09:21:54.729Z,24.7
2018-08-04T09:22:54.599Z,24.7
2018-08-04T09:23:54.643Z,24.71
2018-08-04T09:24:54.667Z,24.7
2018-08-04T09:25:54.685Z,24.68
2018-08-04T09:26:54.696Z,24.67
2018-08-04T09:27:54.714Z,24.66
2018-08-04T09:28:55.532Z,24.67
2018-08-04T09:29:54.782Z,24.67
2018-08-04T09:30:54.849Z,24.63
2018-08-04T09:31:54.621Z,24.64
2018-08-04T09:32:54.759Z,24.65
2018-08-04T09:33:54.710Z,24.63
2018-08-04T09:34:54.738Z,24.63
2018-08-04T09:35:54.965Z,24.62
2018-08-04T09:36:54.822Z,24.61
2018-08-04T09:37:54.746Z,24.61
2018-08-04T09:38:54.735Z,24.62
2018-08-04T09:39:54.630Z,24.59
2018-08-04T09:40:54.620Z,24.6
2018-08-04T09:41:54.827Z,24.6
2018-08-04T09:42:54.607Z,24.58
2018-08-04T09:43:54.783Z,24.58
2018-08-04T09:44:56.611Z,24.57
2018-08-04T09:45:54.745Z,24.56
2018-08-04T09:46:55.329Z,24.57
2018-08-04T09:47:54.849Z,24.57
2018-08-04T09:48:54.657Z,24.55
2018-08-04T09:49:56.161Z,24.55
2018-08-04T09:50:55.610Z,24.55
2018-08-04T09:51:54.626Z,24.54
2018-08-04T09:52:54.587Z,24.54
2018-08-04T09:53:56.285Z,24.53
2018-08-04T09:54:54.625Z,24.53
2018-08-04T09:55:54.737Z,24.53
2018-08-04T09:56:54.814Z,24.53
2018-08-04T09:57:54.801Z,24.52
2018-08-04T09:58:54.605Z,24.53
2018-08-04T09:59:54.593Z,24.53
2018-08-04T10:00:55.133Z,24.52
2018-08-04T10:01:54.784Z,24.52
2018-08-04T10:02:54.568Z,24.51
2018-08-04T10:03:54.709Z,24.51
2018-08-04T10:04:54.710Z,24.51
2018-08-04T10:05:54.664Z,24.52
2018-08-04T10:06:54.714Z,24.5
2018-08-04T10:07:54.638Z,24.5
2018-08-04T10:08:54.647Z,24.5
2018-08-04T10:09:54.487Z,24.48
2018-08-04T10:10:54.746Z,24.49
2018-08-04T10:11:54.742Z,24.49
2018-08-04T10:12:54.671Z,24.49
2018-08-04T10:13:54.539Z,24.48
2018-08-04T10:14:54.720Z,24.48
2018-08-04T10:15:54.690Z,24.47
2018-08-04T10:16:54.591Z,24.47
2018-08-04T10:17:54.639Z,24.47
2018-08-04T10:18:54.526Z,24.46
2018-08-04T10:19:54.715Z,24.47
2018-08-04T10:20:54.739Z,24.46
2018-08-04T10:21:54.679Z,24.46
2018-08-04T10:22:54.778Z,24.46
2018-08-04T10:23:54.883Z,24.46
2018-08-04T10:24:54.766Z,24.46
2018-08-04T10:25:54.692Z,24.46
2018-08-04T10:26:54.677Z,24.46
2018-08-04T10:27:54.555Z,24.45
2018-08-04T10:28:54.771Z,24.44
2018-08-04T10:29:54.694Z,24.45
2018-08-04T10:30:54.835Z,24.44
2018-08-04T10:31:54.882Z,24.45
2018-08-04T10:32:54.615Z,24.45
2018-08-04T10:33:54.815Z,24.45
2018-08-04T10:34:54.855Z,24.44
2018-08-04T10:35:54.916Z,24.44
2018-08-04T10:36:54.583Z,24.45
2018-08-04T10:37:54.716Z,24.45
2018-08-04T10:38:55.876Z,24.44
2018-08-04T10:39:54.748Z,24.44
2018-08-04T10:40:57.157Z,24.43
2018-08-04T10:41:55.001Z,24.43
2018-08-04T10:42:54.907Z,24.43
2018-08-04T10:43:54.640Z,24.45
2018-08-04T10:44:54.631Z,24.44
2018-08-04T10:45:54.713Z,24.44
2018-08-04T10:46:54.776Z,24.43
2018-08-04T10:47:54.629Z,24.44
2018-08-04T10:48:54.730Z,24.44
2018-08-04T10:49:54.985Z,24.43
2018-08-04T10:50:54.625Z,24.44
2018-08-04T10:51:54.701Z,24.44
2018-08-04T10:52:54.665Z,24.43
2018-08-04T10:53:54.794Z,24.44
2018-08-04T10:54:54.687Z,24.43
2018-08-04T10:55:54.786Z,24.43
2018-08-04T10:56:54.747Z,24.44
2018-08-04T10:57:54.593Z,24.43
2018-08-04T10:58:54.693Z,24.44
2018-08-04T10:59:54.683Z,24.43
2018-08-04T11:00:54.706Z,24.43
2018-08-04T11:01:54.883Z,24.43
2018-08-04T11:02:54.745Z,24.43
2018-08-04T11:03:54.762Z,24.42
2018-08-04T11:04:54.538Z,24.43
2018-08-04T11:05:54.723Z,24.42
2018-08-04T11:06:54.712Z,24.42
2018-08-04T11:07:54.758Z,24.43
2018-08-04T11:08:54.744Z,24.43
2018-08-04T11:09:54.862Z,24.43
2018-08-04T11:10:54.516Z,24.42
2018-08-04T11:11:54.819Z,24.43
2018-08-04T11:12:54.667Z,24.42
2018-08-04T11:13:54.794Z,24.43
2018-08-04T11:14:54.564Z,24.43
2018-08-04T11:15:54.811Z,24.42
2018-08-04T11:16:54.915Z,24.42
2018-08-04T11:17:55.014Z,24.43
2018-08-04T11:18:54.665Z,24.41
2018-08-04T11:19:54.864Z,24.42
2018-08-04T11:20:54.704Z,24.41
2018-08-04T11:21:54.811Z,24.42
2018-08-04T11:22:54.739Z,24.43
2018-08-04T11:23:54.740Z,24.42
2018-08-04T11:24:54.659Z,24.42
2018-08-04T11:25:54.737Z,24.42
2018-08-04T11:26:54.695Z,24.42
2018-08-04T11:27:54.837Z,24.42
2018-08-04T11:28:54.648Z,24.42
2018-08-04T11:29:54.734Z,24.42
2018-08-04T11:30:54.840Z,24.41
2018-08-04T11:31:54.639Z,24.45
2018-08-04T11:32:54.637Z,24.46
2018-08-04T11:33:54.741Z,24.48
2018-08-04T11:34:54.605Z,24.48
2018-08-04T11:35:54.549Z,24.49
2018-08-04T11:36:54.712Z,24.48
2018-08-04T11:37:54.719Z,24.48
2018-08-04T11:38:54.984Z,24.48
2018-08-04T11:39:54.723Z,24.47
2018-08-04T11:40:54.819Z,24.48
2018-08-04T11:41:54.633Z,24.47
2018-08-04T11:42:54.601Z,24.47
2018-08-04T11:43:54.726Z,24.47
2018-08-04T11:44:54.900Z,24.47
2018-08-04T11:45:54.919Z,24.46
2018-08-04T11:46:54.656Z,24.46
2018-08-04T11:47:54.708Z,24.46
2018-08-04T11:48:54.799Z,24.45
2018-08-04T11:49:54.855Z,24.45
2018-08-04T11:50:54.552Z,24.45
2018-08-04T11:51:54.713Z,24.44
2018-08-04T11:52:54.971Z,24.45
2018-08-04T11:53:54.783Z,24.44
2018-08-04T11:54:54.755Z,24.44
2018-08-04T11:55:54.769Z,24.44
2018-08-04T11:56:54.527Z,24.45
2018-08-04T11:57:54.713Z,24.44
2018-08-04T11:58:54.646Z,24.44
2018-08-04T11:59:54.665Z,24.44
2018-08-04T12:00:54.903Z,24.43
2018-08-04T12:01:54.699Z,24.43
2018-08-04T12:02:54.645Z,24.43
2018-08-04T12:03:54.824Z,24.43
2018-08-04T12:04:54.643Z,24.42
2018-08-04T12:05:54.677Z,24.43
2018-08-04T12:06:54.844Z,24.43
2018-08-04T12:07:54.762Z,24.43
2018-08-04T12:08:54.769Z,24.43
2018-08-04T12:09:54.702Z,24.42
2018-08-04T12:10:54.572Z,24.42
2018-08-04T12:11:54.730Z,24.42
2018-08-04T12:12:54.708Z,24.42
2018-08-04T12:13:54.639Z,24.42
2018-08-04T12:14:54.443Z,24.41
2018-08-04T12:15:54.614Z,24.43
2018-08-04T12:16:54.857Z,24.46
2018-08-04T12:17:54.621Z,24.48
2018-08-04T12:18:54.695Z,24.5
2018-08-04T12:19:54.535Z,24.51
2018-08-04T12:21:05.049Z,24.54
2018-08-04T12:21:54.671Z,24.52
2018-08-04T12:22:54.638Z,24.54
2018-08-04T12:23:54.778Z,24.55
2018-08-04T12:24:54.779Z,24.55
2018-08-04T12:25:54.709Z,24.57
2018-08-04T12:26:54.660Z,24.57
2018-08-04T12:27:54.772Z,24.58
2018-08-04T12:28:54.618Z,24.59
2018-08-04T12:29:54.752Z,24.59
2018-08-04T12:30:54.901Z,24.6
2018-08-04T12:31:54.559Z,24.62
2018-08-04T12:32:54.714Z,24.62
2018-08-04T12:33:54.832Z,24.63
2018-08-04T12:34:54.659Z,24.64
2018-08-04T12:35:54.545Z,24.64
2018-08-04T12:36:54.677Z,24.64
2018-08-04T12:37:54.472Z,24.67
2018-08-04T12:38:54.703Z,24.66
2018-08-04T12:39:54.795Z,24.68
2018-08-04T12:40:54.821Z,24.67
2018-08-04T12:41:54.780Z,24.69
2018-08-04T12:42:54.710Z,24.71
2018-08-04T12:43:54.739Z,24.71
2018-08-04T12:44:54.744Z,24.72
2018-08-04T12:45:56.699Z,24.73
2018-08-04T12:46:54.503Z,24.74
2018-08-04T12:47:54.697Z,24.76
2018-08-04T12:48:54.785Z,24.76
2018-08-04T12:49:54.626Z,24.78
2018-08-04T12:50:54.521Z,24.79
2018-08-04T12:51:54.646Z,24.79
2018-08-04T12:52:54.524Z,24.8
2018-08-04T12:53:54.603Z,24.82
2018-08-04T12:54:54.790Z,24.81